createdAt,value
2018-11-26T00:02:29.308Z,86.40
2018-11-26T00:05:02.889Z,87.87
2018-11-26T00:07:33.808Z,93.90
2018-11-26T00:10:16.546Z,95.03
2018-11-26T00:12:47.881Z,89.53
2018-11-26T00:15:30.815Z,97.47
2018-11-26T00:18:05.530Z,87.03
2018-11-26T00:20:35.453Z,95.47
2018-11-26T00:23:10.283Z,95.60
2018-11-26T00:25:54.629Z,92.60
2018-11-26T00:28:27.087Z,94.67
2018-11-26T00:30:57.048Z,87.63
2018-11-26T00:33:28.857Z,87.90
2018-11-26T00:35:57.505Z,90.73
2018-11-26T00:38:26.159Z,87.50
2018-11-26T00:40:54.859Z,91.47
2018-11-26T00:43:23.852Z,85.97
2018-11-26T00:45:52.382Z,87.57
2018-11-26T00:48:21.133Z,82.67
2018-11-26T00:50:49.977Z,88.07
2018-11-26T00:53:18.595Z,83.33
2018-11-26T00:55:47.176Z,79.00
2018-11-26T00:58:15.989Z,80.27
2018-11-26T01:00:44.457Z,85.30
2018-11-26T01:03:12.985Z,87.90
2018-11-26T01:05:42.017Z,87.67
2018-11-26T01:08:10.615Z,78.63
2018-11-26T01:10:39.176Z,81.30
2018-11-26T01:13:08.209Z,89.80
2018-11-26T01:15:36.704Z,80.97
2018-11-26T01:18:06.048Z,80.80
2018-11-26T01:20:34.987Z,82.77
2018-11-26T01:23:03.636Z,89.47
2018-11-26T01:25:32.046Z,79.93
2018-11-26T01:28:00.649Z,74.90
2018-11-26T01:30:29.016Z,83.33
2018-11-26T01:32:57.860Z,78.53
2018-11-26T01:35:26.280Z,70.40
2018-11-26T01:37:54.705Z,72.77
2018-11-26T01:40:30.048Z,70.27
2018-11-26T01:42:58.589Z,66.23
2018-11-26T01:45:27.084Z,58.67
2018-11-26T01:47:55.528Z,60.93
2018-11-26T01:50:24.130Z,62.60
2018-11-26T01:52:52.877Z,55.80
2018-11-26T01:55:21.383Z,56.00
2018-11-26T01:57:49.954Z,55.97
2018-11-26T02:00:20.992Z,49.90
2018-11-26T02:02:49.461Z,51.30
2018-11-26T02:05:17.974Z,47.67
2018-11-26T02:07:46.895Z,47.10
2018-11-26T02:10:16.619Z,49.93
2018-11-26T02:12:45.578Z,51.27
2018-11-26T02:15:50.666Z,51.33
2018-11-26T02:18:20.314Z,50.40
2018-11-26T02:20:49.221Z,52.20
2018-11-26T02:23:18.024Z,51.00
2018-11-26T02:25:46.957Z,45.67
2018-11-26T02:28:16.042Z,48.87
2018-11-26T02:30:44.801Z,46.30
2018-11-26T02:33:13.344Z,44.37
2018-11-26T02:35:42.196Z,50.17
2018-11-26T02:38:10.722Z,48.97
2018-11-26T02:40:39.331Z,46.67
2018-11-26T02:43:07.805Z,48.33
2018-11-26T02:45:36.286Z,47.40
2018-11-26T02:48:05.022Z,48.20
2018-11-26T02:50:33.578Z,44.30
2018-11-26T02:53:01.958Z,51.23
2018-11-26T02:55:30.565Z,48.90
2018-11-26T02:57:58.988Z,44.10
2018-11-26T03:00:27.548Z,46.13
2018-11-26T03:02:56.048Z,45.70
2018-11-26T03:05:26.649Z,47.20
2018-11-26T03:07:55.482Z,51.00
2018-11-26T03:10:24.086Z,50.27
2018-11-26T03:12:53.007Z,50.63
2018-11-26T03:15:21.724Z,46.13
2018-11-26T03:17:50.277Z,46.67
2018-11-26T03:20:18.963Z,51.67
2018-11-26T03:22:47.681Z,46.67
2018-11-26T03:25:16.406Z,51.10
2018-11-26T03:27:45.155Z,50.67
2018-11-26T03:30:17.927Z,47.10
2018-11-26T03:32:46.777Z,46.77
2018-11-26T03:35:15.776Z,47.90
2018-11-26T03:37:44.687Z,42.73
2018-11-26T03:40:14.866Z,47.10
2018-11-26T03:42:44.086Z,41.93
2018-11-26T03:45:15.754Z,44.53
2018-11-26T03:47:44.645Z,45.30
2018-11-26T03:50:13.738Z,51.73
2018-11-26T03:52:43.469Z,46.90
2018-11-26T03:55:12.246Z,45.17
2018-11-26T03:57:40.729Z,49.10
2018-11-26T04:00:17.857Z,51.67
2018-11-26T04:02:46.497Z,51.70
2018-11-26T04:05:15.074Z,45.20
2018-11-26T04:07:43.741Z,45.87
2018-11-26T04:10:13.151Z,49.20
2018-11-26T04:12:41.809Z,45.23
2018-11-26T04:15:17.070Z,52.27
2018-11-26T04:17:45.804Z,47.77
2018-11-26T04:20:14.177Z,50.73
2018-11-26T04:22:42.746Z,45.83
2018-11-26T04:25:11.253Z,54.13
2018-11-26T04:27:39.914Z,50.97
2018-11-26T04:30:10.984Z,51.37
2018-11-26T04:32:40.237Z,53.00
2018-11-26T04:35:09.072Z,56.50
2018-11-26T04:37:37.678Z,53.30
2018-11-26T04:40:08.445Z,58.20
2018-11-26T04:42:37.434Z,52.30
2018-11-26T04:45:07.480Z,58.53
2018-11-26T04:47:36.211Z,54.33
2018-11-26T04:50:06.265Z,59.60
2018-11-26T04:52:34.810Z,61.80
2018-11-26T04:55:03.348Z,61.73
2018-11-26T04:57:31.875Z,71.03
2018-11-26T05:00:00.794Z,64.60
2018-11-26T05:02:29.212Z,64.13
2018-11-26T05:04:57.941Z,65.53
2018-11-26T05:07:26.866Z,67.13
2018-11-26T05:09:55.384Z,66.83
2018-11-26T05:12:24.040Z,63.43
2018-11-26T05:14:52.497Z,63.53
2018-11-26T05:17:21.031Z,69.40
2018-11-26T05:19:49.545Z,64.23
2018-11-26T05:22:18.413Z,64.30
2018-11-26T05:24:48.053Z,56.50
2018-11-26T05:27:16.926Z,58.37
2018-11-26T05:29:45.866Z,55.50
2018-11-26T05:32:14.690Z,59.73
2018-11-26T05:34:43.538Z,52.33
2018-11-26T05:37:12.290Z,56.27
2018-11-26T05:39:41.024Z,51.30
2018-11-26T05:42:10.112Z,49.80
2018-11-26T05:44:38.962Z,55.10
2018-11-26T05:47:07.862Z,48.47
2018-11-26T05:49:36.936Z,45.30
2018-11-26T05:52:06.176Z,48.27
2018-11-26T05:54:35.212Z,49.40
2018-11-26T05:57:04.757Z,46.10
2018-11-26T05:59:33.536Z,47.70
2018-11-26T06:02:02.608Z,45.00
2018-11-26T06:04:31.902Z,49.20
2018-11-26T06:07:01.044Z,56.50
2018-11-26T06:09:30.365Z,49.07
2018-11-26T06:11:59.235Z,45.67
2018-11-26T06:14:27.978Z,43.13
2018-11-26T06:16:59.174Z,48.63
2018-11-26T06:19:27.596Z,49.20
2018-11-26T06:21:55.916Z,44.97
2018-11-26T06:24:24.290Z,44.80
2018-11-26T06:26:53.929Z,48.47
2018-11-26T06:29:22.846Z,43.10
2018-11-26T06:31:51.340Z,45.80
2018-11-26T06:34:21.921Z,46.57
2018-11-26T06:42:46.086Z,46.57
2018-11-26T06:45:17.225Z,55.43
2018-11-26T06:47:46.447Z,67.70
2018-11-26T06:51:05.782Z,65.93
2018-11-26T06:53:34.765Z,65.87
2018-11-26T06:58:43.386Z,58.13
2018-11-26T07:04:24.882Z,67.53
2018-11-26T07:06:53.487Z,69.77
2018-11-26T07:09:22.084Z,70.40
2018-11-26T07:11:50.669Z,76.47
2018-11-26T07:14:22.212Z,69.77
2018-11-26T07:16:50.874Z,76.07
2018-11-26T07:19:19.501Z,70.93
2018-11-26T07:21:49.349Z,70.93
2018-11-26T07:24:18.009Z,71.60
2018-11-26T07:26:48.040Z,83.30
2018-11-26T07:29:23.970Z,77.57
2018-11-26T07:31:46.891Z,78.37
2018-11-26T07:34:17.322Z,77.90
2018-11-26T07:36:47.601Z,68.97
2018-11-26T07:39:20.773Z,72.00
2018-11-26T07:41:56.041Z,80.00
2018-11-26T07:44:24.849Z,74.97
2018-11-26T07:47:15.393Z,72.93
2018-11-26T07:49:45.335Z,68.53
2018-11-26T07:55:50.885Z,77.33
2018-11-26T07:58:32.617Z,81.67
2018-11-26T08:01:11.447Z,79.87
2018-11-26T08:03:44.146Z,75.33
2018-11-26T08:06:23.465Z,74.23
2018-11-26T08:08:56.497Z,80.13
2018-11-26T08:11:25.828Z,80.73
2018-11-26T08:13:58.019Z,77.27
2018-11-26T08:16:27.164Z,73.77
2018-11-26T08:18:57.221Z,76.73
2018-11-26T08:21:29.265Z,82.67
2018-11-26T08:24:00.217Z,74.53
2018-11-26T08:26:30.150Z,74.00
2018-11-26T08:29:00.169Z,81.00
2018-11-26T08:31:34.191Z,70.37
2018-11-26T08:34:10.444Z,77.53
2018-11-26T08:36:43.602Z,66.10
2018-11-26T08:39:19.598Z,69.73
2018-11-26T08:42:15.460Z,67.47
2018-11-26T08:49:08.501Z,64.27
2018-11-26T08:51:47.788Z,68.93
2018-11-26T08:54:47.889Z,73.23
2018-11-26T09:00:46.170Z,69.93
2018-11-26T09:03:35.936Z,69.03
2018-11-26T09:06:10.039Z,75.57
2018-11-26T09:08:53.372Z,72.73
2018-11-26T09:11:25.507Z,79.87
2018-11-26T09:14:01.994Z,80.53
2018-11-26T09:16:31.360Z,79.97
2018-11-26T09:19:02.488Z,75.40
2018-11-26T09:21:38.923Z,76.43
2018-11-26T09:24:09.907Z,73.13
2018-11-26T09:26:38.983Z,78.40
2018-11-26T09:29:26.578Z,82.13
2018-11-26T09:48:03.485Z,79.60
2018-11-26T09:50:32.479Z,79.37
2018-11-26T09:53:02.316Z,85.80
2018-11-26T09:55:31.733Z,80.13
2018-11-26T09:58:00.646Z,78.97
2018-11-26T10:00:29.730Z,81.20
2018-11-26T10:02:58.732Z,79.70
2018-11-26T10:05:34.206Z,73.73
2018-11-26T10:08:05.027Z,85.57
2018-11-26T10:10:34.037Z,80.80
2018-11-26T10:13:02.875Z,73.30
2018-11-26T10:15:31.818Z,78.13
2018-11-26T10:31:46.785Z,78.40
2018-11-26T10:34:15.912Z,83.23
2018-11-26T10:36:44.825Z,78.10
2018-11-26T10:39:16.985Z,80.13
2018-11-26T10:41:46.101Z,72.07
2018-11-26T10:44:17.070Z,76.93
2018-11-26T10:46:47.622Z,65.63
2018-11-26T10:49:17.401Z,72.40
2018-11-26T10:51:47.761Z,74.00
2018-11-26T10:54:16.637Z,73.67
2018-11-26T10:56:54.427Z,65.70
2018-11-26T10:59:31.133Z,73.20
2018-11-26T11:02:02.239Z,76.07
2018-11-26T11:04:37.771Z,84.60
2018-11-26T11:07:06.792Z,75.20
2018-11-26T11:09:36.416Z,70.90
2018-11-26T11:12:07.082Z,69.93
2018-11-26T11:14:37.784Z,63.07
2018-11-26T11:17:06.753Z,67.47
2018-11-26T11:19:36.900Z,66.90
2018-11-26T11:22:07.121Z,79.77
2018-11-26T11:24:36.381Z,77.80
2018-11-26T11:27:08.570Z,67.10
2018-11-26T11:41:34.090Z,62.10
2018-11-26T11:47:34.072Z,61.07
2018-11-26T11:50:09.433Z,53.97
2018-11-26T11:52:50.835Z,55.97
2018-11-26T11:55:27.963Z,54.77
2018-11-26T11:57:59.847Z,54.80
2018-11-26T12:01:13.337Z,57.23
2018-11-26T12:03:59.702Z,55.20
2018-11-26T12:06:34.312Z,60.57
2018-11-26T12:09:06.823Z,56.70
2018-11-26T12:14:35.984Z,49.13
2018-11-26T12:17:20.742Z,47.83
2018-11-26T12:20:00.915Z,45.40
2018-11-26T12:22:46.437Z,45.60
2018-11-26T14:47:06.376Z,57.17
2018-11-26T14:49:35.251Z,54.93
2018-11-26T14:52:11.041Z,58.73
2018-11-26T14:54:39.990Z,50.97
2018-11-26T14:57:09.465Z,62.13
2018-11-26T14:59:38.739Z,57.07
2018-11-26T15:02:08.714Z,66.87
2018-11-26T15:04:37.691Z,68.07
2018-11-26T15:07:07.347Z,61.60
2018-11-26T15:09:36.318Z,56.57
2018-11-26T15:12:05.311Z,60.83
2018-11-26T15:14:34.215Z,66.97
2018-11-26T15:17:03.477Z,69.93
2018-11-26T15:19:32.274Z,62.27
2018-11-26T15:22:01.564Z,55.70
2018-11-26T15:24:31.178Z,56.57
2018-11-26T15:27:00.011Z,58.13
2018-11-26T15:29:29.783Z,52.30
2018-11-26T15:31:58.749Z,53.67
2018-11-26T15:34:27.994Z,52.37
2018-11-26T15:36:56.651Z,52.97
2018-11-26T15:39:25.449Z,72.27
2018-11-26T15:41:54.312Z,66.93
2018-11-26T15:44:23.298Z,67.87
2018-11-26T15:46:52.153Z,69.63
2018-11-26T15:49:20.985Z,69.60
2018-11-26T15:51:49.964Z,63.83
2018-11-26T15:54:19.635Z,62.93
2018-11-26T15:56:49.819Z,68.87
2018-11-26T15:59:18.747Z,63.23
2018-11-26T16:01:48.256Z,70.47
2018-11-26T16:04:17.787Z,69.90
2018-11-26T16:06:46.322Z,71.10
2018-11-26T16:09:14.755Z,68.73
2018-11-26T16:11:43.603Z,68.43
2018-11-26T16:14:12.049Z,66.40
2018-11-26T16:16:40.506Z,73.30
2018-11-26T16:19:09.150Z,65.80
2018-11-26T16:21:37.766Z,61.10
2018-11-26T16:24:07.242Z,69.03
2018-11-26T16:26:35.787Z,80.43
2018-11-26T16:29:04.639Z,61.67
2018-11-26T16:31:33.110Z,63.80
2018-11-26T16:34:01.836Z,69.17
2018-11-26T16:36:30.371Z,64.83
2018-11-26T16:38:59.006Z,59.10
2018-11-26T16:41:27.572Z,53.27
2018-11-26T16:43:56.078Z,59.93
2018-11-26T16:46:24.658Z,55.17
2018-11-26T16:48:53.479Z,59.93
2018-11-26T16:51:22.003Z,60.27
2018-11-26T16:53:50.502Z,51.07
2018-11-26T16:56:19.214Z,59.90
2018-11-26T16:58:48.424Z,59.23
2018-11-26T17:01:16.801Z,60.00
2018-11-26T17:03:46.090Z,63.47
2018-11-26T17:06:14.614Z,72.03
2018-11-26T17:08:43.048Z,68.73
2018-11-26T17:11:11.737Z,68.67
2018-11-26T17:13:40.135Z,60.40
2018-11-26T17:16:08.640Z,62.50
2018-11-26T17:18:37.343Z,67.73
2018-11-26T17:21:06.433Z,61.40
2018-11-26T17:23:34.956Z,61.00
2018-11-26T17:26:03.449Z,63.30
2018-11-26T17:28:32.033Z,76.67
2018-11-26T17:31:00.485Z,58.87
2018-11-26T17:33:28.988Z,59.63
2018-11-26T17:35:57.419Z,57.80
2018-11-26T17:38:26.133Z,64.23
2018-11-26T17:40:54.688Z,65.67
2018-11-26T17:43:23.102Z,56.60
2018-11-26T17:45:51.619Z,56.13
2018-11-26T17:48:20.469Z,58.90
2018-11-26T17:50:48.940Z,61.87
2018-11-26T17:53:18.676Z,77.00
2018-11-26T17:55:50.547Z,64.17
2018-11-26T17:58:20.580Z,55.17
2018-11-26T18:00:55.849Z,55.67
2018-11-26T18:03:24.606Z,50.67
2018-11-26T18:05:53.140Z,55.43
2018-11-26T18:08:21.601Z,53.47
2018-11-26T18:10:57.044Z,66.90
2018-11-26T18:13:25.446Z,58.17
2018-11-26T18:15:54.909Z,81.77
2018-11-26T18:18:23.989Z,62.90
2018-11-26T18:20:52.150Z,57.93
2018-11-26T18:23:20.588Z,59.50
2018-11-26T18:25:49.839Z,52.23
2018-11-26T18:28:18.497Z,67.93
2018-11-26T18:30:49.643Z,56.43
2018-11-26T18:33:18.218Z,56.07
2018-11-26T18:35:47.726Z,56.10
2018-11-26T18:38:17.129Z,53.27
2018-11-26T18:40:47.775Z,59.00
2018-11-26T18:43:16.350Z,59.00
2018-11-26T18:45:45.192Z,52.23
2018-11-26T18:48:14.666Z,57.67
2018-11-26T18:50:43.240Z,59.20
2018-11-26T18:53:12.032Z,50.03
2018-11-26T18:55:41.335Z,61.03
2018-11-26T18:58:09.948Z,49.30
2018-11-26T19:00:56.344Z,51.07
2018-11-26T19:03:24.771Z,50.70
2018-11-26T19:05:54.185Z,52.43
2018-11-26T19:08:22.914Z,61.30
2018-11-26T19:10:53.614Z,57.57
2018-11-26T19:13:25.712Z,57.30
2018-11-26T19:15:58.185Z,60.33
2018-11-26T19:18:27.151Z,60.83
2018-11-26T19:20:55.557Z,58.03
2018-11-26T19:23:24.170Z,97.97
2018-11-26T19:25:53.176Z,69.03
2018-11-26T19:28:21.610Z,59.97
2018-11-26T19:30:50.447Z,43.13
2018-11-26T19:33:19.087Z,48.27
2018-11-26T19:35:47.530Z,46.57
2018-11-26T19:38:15.966Z,47.13
2018-11-26T19:40:44.526Z,46.03
2018-11-26T19:43:13.416Z,45.30
2018-11-26T19:45:41.875Z,43.90
2018-11-26T19:48:10.457Z,46.97
2018-11-26T19:50:39.439Z,48.53
2018-11-26T19:53:09.307Z,48.07
2018-11-26T19:55:38.010Z,50.80
2018-11-26T19:58:08.189Z,47.23
2018-11-26T20:00:37.699Z,50.63
2018-11-26T20:03:13.603Z,48.47
2018-11-26T20:05:46.917Z,47.73
2018-11-26T20:08:15.335Z,51.23
2018-11-26T20:10:43.881Z,45.17
2018-11-26T20:13:12.297Z,48.47
2018-11-26T20:15:40.688Z,51.53
2018-11-26T20:18:09.393Z,49.47
2018-11-26T20:20:37.857Z,57.83
2018-11-26T20:23:07.431Z,57.10
2018-11-26T20:25:36.137Z,51.63
2018-11-26T20:28:04.634Z,60.30
2018-11-26T20:30:33.012Z,54.33
2018-11-26T20:33:01.406Z,57.10
2018-11-26T20:35:29.794Z,70.70
2018-11-26T20:37:58.595Z,67.80
2018-11-26T20:40:27.231Z,61.07
2018-11-26T20:42:56.539Z,77.47
2018-11-26T20:45:25.306Z,84.20
2018-11-26T20:47:54.373Z,88.43
2018-11-26T20:50:25.372Z,79.83
2018-11-26T20:52:53.798Z,46.77
2018-11-26T20:55:23.505Z,52.80
2018-11-26T20:57:53.497Z,56.43
2018-11-26T21:00:23.385Z,57.63
2018-11-26T21:02:53.187Z,63.87
2018-11-26T21:05:21.732Z,53.67
2018-11-26T21:07:50.183Z,53.17
2018-11-26T21:10:18.628Z,53.50
2018-11-26T21:12:47.405Z,52.03
2018-11-26T21:15:17.367Z,58.00
2018-11-26T21:17:47.657Z,62.37
2018-11-26T21:20:19.439Z,56.10
2018-11-26T21:22:48.011Z,52.83
2018-11-26T21:25:17.181Z,55.37
2018-11-26T21:27:45.695Z,50.13
2018-11-26T21:30:15.321Z,48.70
2018-11-26T21:32:43.802Z,52.20
2018-11-26T21:35:16.475Z,43.33
2018-11-26T21:37:47.019Z,50.80
2018-11-26T21:40:20.306Z,55.47
2018-11-26T21:42:46.228Z,54.10
2018-11-26T21:45:16.659Z,50.50
2018-11-26T21:47:45.169Z,51.07
2018-11-26T21:50:14.402Z,46.33
2018-11-26T21:52:43.499Z,49.50
2018-11-26T21:55:13.090Z,54.27
2018-11-26T21:57:41.629Z,51.17
2018-11-26T22:00:16.916Z,50.53
2018-11-26T22:02:45.426Z,51.57
2018-11-26T22:05:14.374Z,51.60
2018-11-26T22:07:42.925Z,55.97
2018-11-26T22:10:13.646Z,65.93
2018-11-26T22:12:43.213Z,58.57
2018-11-26T22:15:12.817Z,53.03
2018-11-26T22:17:41.609Z,55.00
2018-11-26T22:20:13.633Z,49.13
2018-11-26T22:22:42.155Z,48.87
2018-11-26T22:25:11.652Z,47.33
2018-11-26T22:27:40.136Z,50.80
2018-11-26T22:30:17.675Z,50.30
2018-11-26T22:32:47.594Z,40.77
2018-11-26T22:35:16.512Z,45.33
2018-11-26T22:37:46.107Z,46.17
2018-11-26T22:40:18.453Z,42.83
2018-11-26T22:42:47.320Z,45.50
2018-11-26T22:45:20.445Z,48.13
2018-11-26T22:47:52.730Z,48.60
2018-11-26T22:50:27.698Z,46.60
2018-11-26T22:52:56.957Z,44.87
2018-11-26T22:55:25.665Z,46.47
2018-11-26T22:57:54.615Z,47.60
2018-11-26T23:00:26.035Z,52.80
2018-11-26T23:02:58.047Z,51.80
2018-11-26T23:05:27.020Z,50.30
2018-11-26T23:07:55.880Z,50.03
2018-11-26T23:10:24.741Z,41.37
2018-11-26T23:12:53.598Z,46.37
2018-11-26T23:15:23.220Z,44.87
2018-11-26T23:17:51.715Z,45.23
2018-11-26T23:20:20.664Z,43.80
2018-11-26T23:22:49.094Z,43.57
2018-11-26T23:25:18.902Z,40.40
2018-11-26T23:27:47.295Z,37.20
2018-11-26T23:51:24.041Z,50.00
2018-11-26T23:53:52.793Z,47.23
2018-11-26T23:56:22.665Z,49.07
2018-11-26T23:58:51.643Z,52.20
